createdAt,value
2017-03-05T00:00:30.290Z,32.31
2017-03-05T00:01:30.298Z,32.31
2017-03-05T00:02:30.305Z,32.21
2017-03-05T00:03:30.311Z,32.21
2017-03-05T00:04:31.013Z,32.12
2017-03-05T00:05:30.520Z,32.03
2017-03-05T00:06:30.377Z,32.03
2017-03-05T00:07:31.308Z,32.12
2017-03-05T00:08:29.945Z,32.03
2017-03-05T00:09:30.697Z,32.03
2017-03-05T00:10:30.354Z,32.12
2017-03-05T00:11:30.354Z,32.21
2017-03-05T00:12:30.365Z,32.03
2017-03-05T00:13:30.418Z,31.93
2017-03-05T00:14:30.424Z,31.93
2017-03-05T00:15:30.382Z,31.93
2017-03-05T00:16:30.396Z,32.03
2017-03-05T00:17:30.392Z,31.93
2017-03-05T00:18:29.999Z,31.93
2017-03-05T00:19:30.413Z,31.85
2017-03-05T00:20:30.520Z,32.03
2017-03-05T00:21:30.468Z,31.93
2017-03-05T00:22:30.478Z,31.94
2017-03-05T00:23:30.680Z,31.93
2017-03-05T00:24:30.434Z,31.93
2017-03-05T00:25:30.500Z,31.73
2017-03-05T00:26:30.447Z,31.85
2017-03-05T00:27:30.454Z,31.83
2017-03-05T00:28:30.469Z,31.85
2017-03-05T00:29:31.465Z,31.94
2017-03-05T00:30:30.468Z,31.83
2017-03-05T00:31:30.528Z,31.63
2017-03-05T00:32:30.498Z,31.73
2017-03-05T00:33:30.488Z,31.85
2017-03-05T00:34:30.543Z,31.94
2017-03-05T00:35:30.552Z,31.73
2017-03-05T00:36:30.510Z,31.83
2017-03-05T00:37:30.512Z,31.85
2017-03-05T00:38:30.123Z,31.75
2017-03-05T00:39:30.529Z,31.85
2017-03-05T00:40:31.432Z,31.83
2017-03-05T00:41:30.539Z,31.83
2017-03-05T00:42:30.147Z,31.73
2017-03-05T00:43:30.601Z,31.93
2017-03-05T00:44:30.555Z,31.75
2017-03-05T00:45:30.614Z,31.63
2017-03-05T00:46:30.567Z,31.73
2017-03-05T00:47:30.583Z,31.94
2017-03-05T00:48:30.194Z,31.75
2017-03-05T00:49:30.597Z,31.83
2017-03-05T00:50:30.593Z,31.73
2017-03-05T00:51:31.201Z,31.63
2017-03-05T00:52:30.660Z,31.54
2017-03-05T00:53:30.618Z,31.75
2017-03-05T00:54:30.619Z,31.85
2017-03-05T00:55:31.321Z,31.75
2017-03-05T00:56:30.629Z,31.54
2017-03-05T00:57:30.686Z,31.65
2017-03-05T00:58:30.642Z,31.63
2017-03-05T00:59:30.697Z,31.54
2017-03-05T01:00:30.662Z,31.65
2017-03-05T01:01:30.666Z,31.65
2017-03-05T01:02:30.665Z,31.63
2017-03-05T01:03:30.670Z,31.63
2017-03-05T01:04:32.179Z,31.56
2017-03-05T01:05:30.698Z,31.73
2017-03-05T01:06:31.096Z,31.63
2017-03-05T01:07:30.700Z,31.63
2017-03-05T01:08:30.301Z,31.63
2017-03-05T01:09:30.706Z,31.63
2017-03-05T01:10:30.711Z,31.73
2017-03-05T01:11:30.719Z,31.75
2017-03-05T01:12:30.723Z,31.37
2017-03-05T01:13:30.729Z,31.56
2017-03-05T01:14:30.788Z,31.27
2017-03-05T01:15:31.871Z,31.54
2017-03-05T01:16:30.348Z,31.54
2017-03-05T01:17:30.753Z,31.54
2017-03-05T01:18:30.765Z,31.37
2017-03-05T01:19:30.767Z,31.35
2017-03-05T01:20:30.772Z,31.35
2017-03-05T01:21:30.381Z,31.56
2017-03-05T01:22:30.844Z,31.46
2017-03-05T01:23:30.798Z,31.37
2017-03-05T01:24:30.795Z,31.65
2017-03-05T01:25:30.865Z,31.46
2017-03-05T01:26:31.909Z,31.27
2017-03-05T01:27:30.813Z,31.46
2017-03-05T01:28:30.828Z,31.35
2017-03-05T01:29:30.930Z,31.25
2017-03-05T01:30:30.984Z,31.37
2017-03-05T01:31:30.841Z,31.35
2017-03-05T01:32:30.896Z,31.35
2017-03-05T01:33:30.902Z,31.35
2017-03-05T01:34:30.859Z,31.37
2017-03-05T01:35:30.870Z,31.35
2017-03-05T01:36:30.870Z,31.25
2017-03-05T01:37:31.783Z,31.35
2017-03-05T01:38:30.482Z,31.56
2017-03-05T01:39:30.490Z,31.45
2017-03-05T01:40:30.898Z,31.35
2017-03-05T01:41:31.849Z,31.35
2017-03-05T01:42:30.906Z,31.54
2017-03-05T01:43:30.961Z,31.25
2017-03-05T01:44:30.930Z,31.63
2017-03-05T01:45:30.975Z,31.54
2017-03-05T01:46:30.933Z,31.35
2017-03-05T01:47:30.936Z,31.45
2017-03-05T01:48:31.006Z,31.25
2017-03-05T01:49:30.600Z,31.25
2017-03-05T01:50:31.010Z,31.35
2017-03-05T01:51:30.961Z,31.25
2017-03-05T01:52:31.914Z,31.25
2017-03-05T01:53:30.969Z,31.35
2017-03-05T01:54:31.024Z,31.45
2017-03-05T01:55:30.996Z,31.35
2017-03-05T01:56:31.043Z,31.35
2017-03-05T01:57:31.011Z,31.25
2017-03-05T01:58:31.003Z,31.54
2017-03-05T01:59:31.019Z,31.15
2017-03-05T02:00:31.080Z,31.25
2017-03-05T02:01:30.689Z,31.15
2017-03-05T02:02:31.038Z,31.27
2017-03-05T02:03:31.542Z,31.27
2017-03-05T02:04:30.639Z,31.25
2017-03-05T02:05:31.051Z,31.27
2017-03-05T02:06:31.049Z,31.27
2017-03-05T02:07:31.055Z,31.25
2017-03-05T02:08:31.062Z,31.25
2017-03-05T02:09:30.718Z,31.15
2017-03-05T02:10:31.126Z,31.15
2017-03-05T02:11:31.179Z,31.25
2017-03-05T02:12:31.092Z,31.15
2017-03-05T02:13:31.406Z,31.25
2017-03-05T02:14:31.601Z,31.37
2017-03-05T02:15:31.166Z,31.25
2017-03-05T02:16:31.109Z,31.15
2017-03-05T02:17:31.117Z,31.15
2017-03-05T02:18:30.722Z,31.25
2017-03-05T02:19:30.730Z,31.35
2017-03-05T02:20:31.134Z,31.25
2017-03-05T02:21:31.140Z,31.25
2017-03-05T02:22:31.156Z,31.25
2017-03-05T02:23:32.079Z,31.25
2017-03-05T02:24:31.156Z,31.25
2017-03-05T02:25:31.364Z,31.35
2017-03-05T02:26:31.166Z,31.35
2017-03-05T02:27:31.194Z,31.25
2017-03-05T02:28:31.196Z,31.35
2017-03-05T02:29:31.237Z,31.25
2017-03-05T02:30:30.796Z,31.15
2017-03-05T02:31:30.802Z,31.35
2017-03-05T02:32:31.205Z,31.25
2017-03-05T02:33:31.214Z,31.35
2017-03-05T02:34:31.220Z,31.25
2017-03-05T02:35:31.224Z,31.35
2017-03-05T02:36:31.631Z,31.35
2017-03-05T02:37:30.838Z,31.25
2017-03-05T02:38:32.216Z,31.35
2017-03-05T02:39:31.252Z,31.25
2017-03-05T02:40:31.314Z,31.25
2017-03-05T02:41:31.274Z,31.45
2017-03-05T02:42:30.919Z,31.25
2017-03-05T02:43:31.274Z,31.25
2017-03-05T02:44:31.329Z,31.06
2017-03-05T02:45:31.283Z,31.35
2017-03-05T02:46:31.289Z,31.25
2017-03-05T02:47:31.300Z,31.25
2017-03-05T02:48:31.319Z,31.25
2017-03-05T02:49:30.936Z,31.25
2017-03-05T02:50:31.317Z,31.25
2017-03-05T02:51:31.368Z,30.96
2017-03-05T02:52:31.327Z,31.15
2017-03-05T02:53:31.331Z,31.06
2017-03-05T02:54:30.941Z,31.25
2017-03-05T02:55:31.346Z,30.96
2017-03-05T02:56:31.361Z,31.06
2017-03-05T02:57:31.356Z,30.96
2017-03-05T02:58:30.961Z,30.87
2017-03-05T02:59:31.372Z,31.15
2017-03-05T03:00:32.372Z,31.15
2017-03-05T03:01:31.397Z,31.06
2017-03-05T03:02:31.381Z,30.98
2017-03-05T03:03:31.392Z,31.07
2017-03-05T03:04:31.396Z,30.96
2017-03-05T03:05:31.451Z,30.98
2017-03-05T03:06:31.009Z,30.58
2017-03-05T03:07:31.455Z,30.96
2017-03-05T03:08:31.417Z,30.79
2017-03-05T03:09:31.033Z,31.06
2017-03-05T03:10:31.448Z,31.07
2017-03-05T03:11:32.086Z,30.88
2017-03-05T03:12:31.493Z,30.96
2017-03-05T03:13:31.459Z,30.69
2017-03-05T03:14:31.459Z,30.96
2017-03-05T03:15:31.472Z,30.88
2017-03-05T03:16:31.468Z,30.98
2017-03-05T03:17:31.470Z,30.77
2017-03-05T03:18:31.477Z,31.07
2017-03-05T03:19:31.534Z,30.96
2017-03-05T03:20:31.494Z,30.59
2017-03-05T03:21:31.497Z,30.77
2017-03-05T03:22:31.904Z,30.98
2017-03-05T03:23:31.509Z,30.98
2017-03-05T03:24:31.116Z,30.67
2017-03-05T03:25:31.520Z,30.96
2017-03-05T03:26:31.529Z,30.87
2017-03-05T03:27:31.535Z,31.06
2017-03-05T03:28:31.597Z,30.69
2017-03-05T03:29:31.627Z,30.98
2017-03-05T03:30:31.548Z,30.48
2017-03-05T03:31:31.606Z,30.77
2017-03-05T03:32:31.599Z,30.77
2017-03-05T03:33:31.770Z,30.69
2017-03-05T03:34:31.226Z,30.87
2017-03-05T03:35:31.594Z,30.87
2017-03-05T03:36:31.582Z,30.87
2017-03-05T03:37:31.594Z,30.79
2017-03-05T03:38:31.605Z,31.15
2017-03-05T03:39:31.651Z,31.06
2017-03-05T03:40:31.618Z,30.96
2017-03-05T03:41:31.613Z,30.77
2017-03-05T03:42:31.628Z,30.77
2017-03-05T03:43:31.624Z,30.58
2017-03-05T03:44:31.683Z,30.98
2017-03-05T03:45:31.689Z,30.98
2017-03-05T03:46:32.746Z,31.06
2017-03-05T03:47:31.725Z,31.07
2017-03-05T03:48:31.660Z,31.07
2017-03-05T03:49:31.663Z,30.79
2017-03-05T03:50:31.668Z,30.58
2017-03-05T03:51:31.325Z,30.87
2017-03-05T03:52:31.677Z,30.58
2017-03-05T03:53:31.690Z,30.96
2017-03-05T03:54:31.692Z,30.88
2017-03-05T03:55:31.697Z,30.77
2017-03-05T03:56:31.759Z,30.87
2017-03-05T03:57:32.609Z,30.87
2017-03-05T03:58:31.719Z,30.98
2017-03-05T03:59:31.322Z,30.88
2017-03-05T04:00:31.732Z,30.88
2017-03-05T04:01:31.734Z,30.88
2017-03-05T04:02:31.751Z,30.58
2017-03-05T04:03:31.744Z,30.29
2017-03-05T04:04:31.799Z,30.96
2017-03-05T04:05:31.854Z,30.77
2017-03-05T04:06:31.365Z,30.38
2017-03-05T04:07:31.771Z,31.06
2017-03-05T04:08:32.523Z,30.96
2017-03-05T04:09:31.831Z,30.87
2017-03-05T04:10:31.832Z,30.58
2017-03-05T04:11:31.838Z,30.67
2017-03-05T04:12:31.398Z,30.77
2017-03-05T04:13:31.803Z,30.77
2017-03-05T04:14:31.807Z,30.87
2017-03-05T04:15:31.875Z,30.58
2017-03-05T04:16:31.826Z,30.96
2017-03-05T04:17:31.825Z,31.06
2017-03-05T04:18:31.833Z,31.06
2017-03-05T04:19:32.585Z,30.67
2017-03-05T04:20:31.843Z,30.87
2017-03-05T04:21:31.878Z,31.06
2017-03-05T04:22:31.909Z,30.87
2017-03-05T04:23:31.863Z,30.87
2017-03-05T04:24:31.867Z,30.96
2017-03-05T04:25:31.869Z,30.87
2017-03-05T04:26:31.930Z,30.77
2017-03-05T04:27:31.887Z,30.77
2017-03-05T04:28:31.888Z,30.48
2017-03-05T04:29:31.896Z,30.87
2017-03-05T04:30:32.503Z,30.87
2017-03-05T04:31:31.907Z,30.87
2017-03-05T04:32:31.913Z,30.87
2017-03-05T04:33:31.928Z,30.67
2017-03-05T04:34:31.924Z,30.77
2017-03-05T04:35:32.002Z,30.87
2017-03-05T04:36:31.938Z,31.06
2017-03-05T04:37:31.941Z,30.58
2017-03-05T04:38:31.949Z,30.87
2017-03-05T04:39:32.017Z,30.58
2017-03-05T04:40:31.960Z,30.38
2017-03-05T04:41:32.067Z,30.87
2017-03-05T04:42:31.625Z,30.87
2017-03-05T04:43:31.979Z,30.87
2017-03-05T04:44:31.585Z,30.87
2017-03-05T04:45:31.992Z,30.87
2017-03-05T04:46:32.048Z,30.58
2017-03-05T04:47:32.001Z,30.67
2017-03-05T04:48:32.008Z,31.06
2017-03-05T04:49:32.011Z,30.67
2017-03-05T04:50:32.028Z,30.67
2017-03-05T04:51:32.079Z,30.77
2017-03-05T04:52:32.084Z,31.06
2017-03-05T04:53:32.096Z,30.87
2017-03-05T04:54:33.229Z,30.48
2017-03-05T04:55:32.051Z,30.87
2017-03-05T04:56:32.108Z,30.77
2017-03-05T04:57:31.663Z,30.77
2017-03-05T04:58:31.683Z,30.67
2017-03-05T04:59:32.121Z,30.87
2017-03-05T05:00:32.081Z,30.87
2017-03-05T05:01:32.137Z,30.67
2017-03-05T05:02:32.088Z,30.58
2017-03-05T05:03:32.146Z,30.96
2017-03-05T05:04:32.101Z,30.77
2017-03-05T05:05:33.309Z,30.77
2017-03-05T05:06:32.114Z,30.58
2017-03-05T05:07:32.122Z,30.87
2017-03-05T05:08:32.177Z,30.58
2017-03-05T05:09:32.182Z,30.58
2017-03-05T05:10:32.187Z,30.48
2017-03-05T05:11:32.193Z,30.29
2017-03-05T05:12:32.202Z,30.87
2017-03-05T05:13:32.168Z,30.77
2017-03-05T05:14:32.210Z,30.87
2017-03-05T05:15:32.173Z,30.77
2017-03-05T05:16:33.083Z,30.77
2017-03-05T05:17:32.188Z,30.29
2017-03-05T05:18:31.858Z,30.96
2017-03-05T05:19:32.199Z,30.87
2017-03-05T05:20:32.299Z,30.38
2017-03-05T05:21:32.201Z,30.58
2017-03-05T05:22:32.256Z,30.87
2017-03-05T05:23:32.216Z,30.96
2017-03-05T05:24:32.272Z,30.58
2017-03-05T05:25:32.326Z,31.06
2017-03-05T05:26:32.241Z,30.58
2017-03-05T05:27:32.837Z,31.06
2017-03-05T05:28:31.844Z,30.48
2017-03-05T05:29:32.310Z,30.48
2017-03-05T05:30:32.258Z,30.87
2017-03-05T05:31:32.259Z,30.87
2017-03-05T05:32:32.318Z,30.58
2017-03-05T05:33:32.320Z,30.19
2017-03-05T05:34:31.932Z,30.96
2017-03-05T05:35:32.339Z,30.58
2017-03-05T05:36:32.391Z,30.77
2017-03-05T05:37:32.344Z,30.1
2017-03-05T05:38:32.755Z,30.67
2017-03-05T05:39:32.357Z,30.77
2017-03-05T05:40:33.335Z,30.38
2017-03-05T05:41:32.375Z,30.38
2017-03-05T05:42:32.827Z,30.48
2017-03-05T05:43:32.338Z,30.29
2017-03-05T05:44:32.337Z,30.38
2017-03-05T05:45:32.353Z,30.38
2017-03-05T05:46:32.019Z,30.87
2017-03-05T05:47:32.410Z,30.38
2017-03-05T05:48:32.361Z,30.29
2017-03-05T05:49:32.369Z,30.77
2017-03-05T05:50:32.376Z,30.58
2017-03-05T05:51:32.381Z,30.29
2017-03-05T05:52:32.435Z,30.58
2017-03-05T05:53:32.543Z,30.29
2017-03-05T05:54:32.458Z,30.38
2017-03-05T05:55:32.453Z,30.38
2017-03-05T05:56:32.471Z,30.67
2017-03-05T05:57:32.471Z,30.38
2017-03-05T05:58:32.421Z,30.38
2017-03-05T05:59:32.833Z,30.19
2017-03-05T06:00:32.491Z,30.38
2017-03-05T06:01:32.436Z,30.29
2017-03-05T06:02:33.550Z,30.58
2017-03-05T06:03:32.450Z,30.48
2017-03-05T06:04:32.458Z,30.29
2017-03-05T06:05:32.563Z,30.29
2017-03-05T06:06:32.469Z,30.58
2017-03-05T06:07:32.521Z,30.58
2017-03-05T06:08:32.090Z,30.29
2017-03-05T06:09:32.514Z,30.29
2017-03-05T06:10:32.550Z,30.29
2017-03-05T06:11:32.550Z,30.38
2017-03-05T06:12:32.552Z,30
2017-03-05T06:13:33.559Z,30
2017-03-05T06:14:32.517Z,30.38
2017-03-05T06:15:32.522Z,30.19
2017-03-05T06:16:32.584Z,30.58
2017-03-05T06:17:32.590Z,30.48
2017-03-05T06:18:32.553Z,30.1
2017-03-05T06:19:32.597Z,30.1
2017-03-05T06:20:32.161Z,30.48
2017-03-05T06:21:32.170Z,30.19
2017-03-05T06:22:32.165Z,30.29
2017-03-05T06:23:32.567Z,30.1
2017-03-05T06:24:33.277Z,30.1
2017-03-05T06:25:32.631Z,30.1
2017-03-05T06:26:32.588Z,29.9
2017-03-05T06:27:32.640Z,30.01
2017-03-05T06:28:33.412Z,30.1
2017-03-05T06:29:32.606Z,30.19
2017-03-05T06:30:32.611Z,30
2017-03-05T06:31:32.630Z,30.19
2017-03-05T06:32:32.226Z,30.19
2017-03-05T06:33:32.728Z,30.29
2017-03-05T06:34:32.643Z,30.29
2017-03-05T06:35:32.641Z,30.29
2017-03-05T06:36:32.646Z,30.1
2017-03-05T06:37:32.704Z,30.19
2017-03-05T06:38:32.760Z,30.29
2017-03-05T06:39:33.278Z,30.29
2017-03-05T06:40:32.667Z,30
2017-03-05T06:41:32.723Z,30
2017-03-05T06:42:32.286Z,30
2017-03-05T06:43:32.688Z,30.19
2017-03-05T06:44:32.690Z,30
2017-03-05T06:45:32.760Z,30.19
2017-03-05T06:46:32.702Z,30
2017-03-05T06:47:32.815Z,30.1
2017-03-05T06:48:33.631Z,30
2017-03-05T06:49:32.719Z,30
2017-03-05T06:50:32.965Z,30
2017-03-05T06:51:32.737Z,30.29
2017-03-05T06:52:32.741Z,30.29
2017-03-05T06:53:32.747Z,30
2017-03-05T06:54:32.748Z,30
2017-03-05T06:55:32.758Z,30.19
2017-03-05T06:56:32.813Z,30.21
2017-03-05T06:57:32.818Z,30.1
2017-03-05T06:58:32.778Z,30.1
2017-03-05T06:59:33.955Z,30
2017-03-05T07:00:32.846Z,30.1
2017-03-05T07:01:32.944Z,30
2017-03-05T07:02:32.800Z,30.21
2017-03-05T07:03:32.805Z,30.1
2017-03-05T07:04:32.809Z,30.19
2017-03-05T07:05:32.866Z,30.1
2017-03-05T07:06:32.884Z,30.1
2017-03-05T07:07:33.126Z,30.19
2017-03-05T07:08:32.491Z,30.19
2017-03-05T07:09:32.904Z,30.1
2017-03-05T07:10:33.949Z,30.1
2017-03-05T07:11:32.904Z,30.1
2017-03-05T07:12:32.870Z,30
2017-03-05T07:13:32.911Z,30.01
2017-03-05T07:14:33.974Z,30.1
2017-03-05T07:15:32.889Z,30.11
2017-03-05T07:16:32.943Z,30
2017-03-05T07:17:32.887Z,29.8
2017-03-05T07:18:32.895Z,29.91
2017-03-05T07:19:32.962Z,29.91
2017-03-05T07:20:32.510Z,30.11
2017-03-05T07:21:32.513Z,29.9
2017-03-05T07:22:32.986Z,29.9
2017-03-05T07:23:32.926Z,30.19
2017-03-05T07:24:33.732Z,30.1
2017-03-05T07:25:33.941Z,29.8
2017-03-05T07:26:32.955Z,30
2017-03-05T07:27:32.954Z,30.01
2017-03-05T07:28:33.007Z,29.71
2017-03-05T07:29:32.961Z,29.71
2017-03-05T07:30:33.068Z,29.82
2017-03-05T07:31:33.031Z,30.01
2017-03-05T07:32:33.028Z,29.63
2017-03-05T07:33:32.999Z,30
2017-03-05T07:34:32.592Z,29.91
2017-03-05T07:35:33.054Z,30
2017-03-05T07:36:33.604Z,30.38
2017-03-05T07:37:33.111Z,30.01
2017-03-05T07:38:33.020Z,29.61
2017-03-05T07:39:33.027Z,29.9
2017-03-05T07:40:33.096Z,30.01
2017-03-05T07:41:33.141Z,29.71
2017-03-05T07:42:33.142Z,30
2017-03-05T07:43:33.095Z,30
2017-03-05T07:44:33.102Z,30.01
2017-03-05T07:45:33.058Z,30.21
2017-03-05T07:46:32.719Z,29.9
2017-03-05T07:47:33.721Z,29.91
2017-03-05T07:48:33.079Z,29.63
2017-03-05T07:49:33.133Z,29.82
2017-03-05T07:50:33.091Z,30.01
2017-03-05T07:51:33.093Z,29.91
2017-03-05T07:52:33.107Z,29.82
2017-03-05T07:53:32.812Z,30.67
2017-03-05T07:54:33.176Z,30.38
2017-03-05T07:55:33.134Z,29.91
2017-03-05T07:56:34.302Z,29.82
2017-03-05T07:57:33.231Z,29.82
2017-03-05T07:58:33.199Z,29.82
2017-03-05T07:59:33.198Z,29.9
2017-03-05T08:00:33.161Z,29.91
2017-03-05T08:01:33.157Z,29.9
2017-03-05T08:02:33.215Z,30.01
2017-03-05T08:03:33.177Z,29.63
2017-03-05T08:04:33.276Z,29.82
2017-03-05T08:05:33.233Z,30.21
2017-03-05T08:06:33.288Z,29.82
2017-03-05T08:07:33.198Z,30.21
2017-03-05T08:08:33.201Z,29.91
2017-03-05T08:09:33.258Z,29.24
2017-03-05T08:10:33.214Z,29.43
2017-03-05T08:11:34.378Z,28.95
2017-03-05T08:12:33.225Z,29.16
2017-03-05T08:13:33.282Z,28.97
2017-03-05T08:14:33.251Z,29.16
2017-03-05T08:15:33.298Z,29.16
2017-03-05T08:16:33.304Z,29.05
2017-03-05T08:17:33.867Z,29.16
2017-03-05T08:18:33.325Z,28.77
2017-03-05T08:19:33.284Z,28.87
2017-03-05T08:20:33.348Z,28.88
2017-03-05T08:21:32.904Z,28.5
2017-03-05T08:22:34.164Z,28.11
2017-03-05T08:23:33.919Z,28.2
2017-03-05T08:24:33.379Z,28.3
2017-03-05T08:25:33.437Z,28.11
2017-03-05T08:26:33.397Z,27.53
2017-03-05T08:27:33.426Z,28.13
2017-03-05T08:28:33.417Z,28.69
2017-03-05T08:29:32.977Z,28.78
2017-03-05T08:30:33.388Z,28.67
2017-03-05T08:31:33.393Z,28.98
2017-03-05T08:32:33.452Z,29.06
2017-03-05T08:33:34.062Z,29.16
2017-03-05T08:34:33.022Z,29.53
2017-03-05T08:35:33.426Z,29.24
2017-03-05T08:36:33.450Z,29.43
2017-03-05T08:37:33.500Z,29.63
2017-03-05T08:38:33.450Z,29.53
2017-03-05T08:39:33.486Z,29.25
2017-03-05T08:40:33.563Z,29.53
2017-03-05T08:41:33.472Z,30.21
2017-03-05T08:42:34.459Z,29.53
2017-03-05T08:43:33.540Z,29.63
2017-03-05T08:44:33.759Z,29.34
2017-03-05T08:45:33.603Z,29.53
2017-03-05T08:46:33.610Z,29.24
2017-03-05T08:47:33.564Z,29.34
2017-03-05T08:48:33.572Z,28.85
2017-03-05T08:49:33.576Z,27.82
2017-03-05T08:50:33.201Z,28.22
2017-03-05T08:51:33.615Z,28.78
2017-03-05T08:52:33.564Z,29.55
2017-03-05T08:53:33.611Z,29.53
2017-03-05T08:54:33.567Z,28.85
2017-03-05T08:55:33.590Z,27.24
2017-03-05T08:56:33.717Z,27.57
2017-03-05T08:57:34.780Z,28.11
2017-03-05T08:58:33.654Z,26.37
2017-03-05T08:59:33.606Z,24.78
2017-03-05T09:00:33.666Z,24.51
2017-03-05T09:01:33.676Z,26.16
2017-03-05T09:02:33.685Z,27.56
2017-03-05T09:03:33.696Z,25.04
2017-03-05T09:04:33.260Z,23.06
2017-03-05T09:05:33.671Z,23.87
2017-03-05T09:06:33.729Z,24.32
2017-03-05T09:07:33.688Z,25.84
2017-03-05T09:08:34.539Z,24.49
2017-03-05T09:09:33.763Z,25.87
2017-03-05T09:10:33.758Z,25.43
2017-03-05T09:11:33.715Z,23.14
2017-03-05T09:12:33.733Z,22.22
2017-03-05T09:13:33.789Z,21.73
2017-03-05T09:14:48.218Z,20.77
2017-03-05T09:15:33.855Z,22.13
2017-03-05T09:16:33.769Z,22.02
2017-03-05T09:17:33.778Z,21.75
2017-03-05T09:18:33.809Z,20.87
2017-03-05T09:19:34.954Z,21.95
2017-03-05T09:20:33.862Z,21.84
2017-03-05T09:21:34.120Z,23.41
2017-03-05T09:22:33.879Z,22.96
2017-03-05T09:23:33.893Z,22.5
2017-03-05T09:24:33.851Z,23
2017-03-05T09:25:33.912Z,23.54
2017-03-05T09:26:33.877Z,22.2
2017-03-05T09:27:33.935Z,23.28
2017-03-05T09:28:33.898Z,23.18
2017-03-05T09:29:33.955Z,22.31
2017-03-05T09:30:34.619Z,22.41
2017-03-05T09:31:33.943Z,22.03
2017-03-05T09:32:33.939Z,22.81
2017-03-05T09:33:33.948Z,22.33
2017-03-05T09:34:33.963Z,22.8
2017-03-05T09:35:33.977Z,23.09
2017-03-05T09:36:34.048Z,23.27
2017-03-05T09:37:34.060Z,23.76
2017-03-05T09:38:34.009Z,23.85
2017-03-05T09:39:34.067Z,24.61
2017-03-05T09:40:34.073Z,25.67
2017-03-05T09:41:34.592Z,26.52
2017-03-05T09:42:34.102Z,27.85
2017-03-05T09:43:33.666Z,28.13
2017-03-05T09:44:34.158Z,28.69
2017-03-05T09:45:34.066Z,28.69
2017-03-05T09:46:34.077Z,28.88
2017-03-05T09:47:34.087Z,28.98
2017-03-05T09:48:34.144Z,29.36
2017-03-05T09:49:34.252Z,30.12
2017-03-05T09:50:33.771Z,30.03
2017-03-05T09:51:34.914Z,30.32
2017-03-05T09:52:34.273Z,30.21
2017-03-05T09:53:34.183Z,30.4
2017-03-05T09:54:33.741Z,30.3
2017-03-05T09:55:34.211Z,30.4
2017-03-05T09:56:34.152Z,30.3
2017-03-05T09:57:34.160Z,30.21
2017-03-05T09:58:34.219Z,30.4
2017-03-05T09:59:35.133Z,30.79
2017-03-05T10:00:34.181Z,30.69
2017-03-05T10:01:34.185Z,30.98
2017-03-05T10:02:34.250Z,30.98
2017-03-05T10:03:34.405Z,30.88
2017-03-05T10:04:34.209Z,31.07
2017-03-05T10:05:33.869Z,31.17
2017-03-05T10:06:33.926Z,31.17
2017-03-05T10:07:34.232Z,31.17
2017-03-05T10:08:34.296Z,31.25
2017-03-05T10:09:34.250Z,30.98
2017-03-05T10:10:34.255Z,31.27
2017-03-05T10:11:34.276Z,31.35
2017-03-05T10:12:34.269Z,31.25
2017-03-05T10:13:33.875Z,31.46
2017-03-05T10:14:34.315Z,31.17
2017-03-05T10:15:34.337Z,31.15
2017-03-05T10:16:34.343Z,31.15
2017-03-05T10:17:34.353Z,31.17
2017-03-05T10:18:34.356Z,31.25
2017-03-05T10:19:34.315Z,31.15
2017-03-05T10:20:34.319Z,31.63
2017-03-05T10:21:34.334Z,31.45
2017-03-05T10:22:34.385Z,31.45
2017-03-05T10:23:34.339Z,31.35
2017-03-05T10:24:34.450Z,31.35
2017-03-05T10:25:34.412Z,31.15
2017-03-05T10:26:33.957Z,31.17
2017-03-05T10:27:35.138Z,31.37
2017-03-05T10:28:34.423Z,31.37
2017-03-05T10:29:34.535Z,31.35
2017-03-05T10:30:34.450Z,31.35
2017-03-05T10:31:34.392Z,31.27
2017-03-05T10:32:34.406Z,31.35
2017-03-05T10:33:34.416Z,31.54
2017-03-05T10:34:34.422Z,31.35
2017-03-05T10:35:34.517Z,31.45
2017-03-05T10:36:34.524Z,31.35
2017-03-05T10:37:34.082Z,31.35
2017-03-05T10:38:35.443Z,31.45
2017-03-05T10:39:34.445Z,31.45
2017-03-05T10:40:34.505Z,31.25
2017-03-05T10:41:34.457Z,31.25
2017-03-05T10:42:34.514Z,31.46
2017-03-05T10:43:34.469Z,31.45
2017-03-05T10:44:34.475Z,31.45
2017-03-05T10:45:34.532Z,31.45
2017-03-05T10:46:34.486Z,31.45
2017-03-05T10:47:34.492Z,31.35
2017-03-05T10:48:34.504Z,31.37
2017-03-05T10:49:35.261Z,31.35
2017-03-05T10:50:34.123Z,31.27
2017-03-05T10:51:34.527Z,31.37
2017-03-05T10:52:34.576Z,31.27
2017-03-05T10:53:34.535Z,31.37
2017-03-05T10:54:34.599Z,31.37
2017-03-05T10:55:34.602Z,31.17
2017-03-05T10:56:34.555Z,31.27
2017-03-05T10:57:34.561Z,31.37
2017-03-05T10:58:34.616Z,31.35
2017-03-05T10:59:34.629Z,31.35
2017-03-05T11:00:35.332Z,31.54
2017-03-05T11:01:34.585Z,31.37
2017-03-05T11:02:34.594Z,31.15
2017-03-05T11:03:34.698Z,31.37
2017-03-05T11:04:34.607Z,31.35
2017-03-05T11:05:34.264Z,31.17
2017-03-05T11:06:34.721Z,31.15
2017-03-05T11:07:34.327Z,31.25
2017-03-05T11:08:34.629Z,31.27
2017-03-05T11:09:34.690Z,31.45
2017-03-05T11:10:35.113Z,31.37
2017-03-05T11:11:35.201Z,31.25
2017-03-05T11:12:34.755Z,31.35
2017-03-05T11:13:34.727Z,31.25
2017-03-05T11:14:34.735Z,31.35
2017-03-05T11:15:35.335Z,31.35
2017-03-05T11:16:34.682Z,31.35
2017-03-05T11:17:34.747Z,31.54
2017-03-05T11:18:34.692Z,31.35
2017-03-05T11:19:34.697Z,31.25
2017-03-05T11:20:34.854Z,31.35
2017-03-05T11:21:34.710Z,31.35
2017-03-05T11:22:34.773Z,31.35
2017-03-05T11:23:34.787Z,31.45
2017-03-05T11:24:34.732Z,31.35
2017-03-05T11:25:34.786Z,31.35
2017-03-05T11:26:35.154Z,31.45
2017-03-05T11:27:34.806Z,31.45
2017-03-05T11:28:34.854Z,31.35
2017-03-05T11:29:34.861Z,31.63
2017-03-05T11:30:34.785Z,31.73
2017-03-05T11:31:34.824Z,31.63
2017-03-05T11:32:34.881Z,31.73
2017-03-05T11:33:34.807Z,31.63
2017-03-05T11:34:35.095Z,31.73
2017-03-05T11:35:35.821Z,31.54
2017-03-05T11:36:34.867Z,31.35
2017-03-05T11:37:35.213Z,31.45
2017-03-05T11:38:34.828Z,31.54
2017-03-05T11:39:34.897Z,31.54
2017-03-05T11:40:34.932Z,31.54
2017-03-05T11:41:34.939Z,31.45
2017-03-05T11:42:34.848Z,31.63
2017-03-05T11:43:34.851Z,31.63
2017-03-05T11:44:34.871Z,31.63
2017-03-05T11:45:34.965Z,31.63
2017-03-05T11:46:34.523Z,31.63
2017-03-05T11:47:34.879Z,31.35
2017-03-05T11:48:35.436Z,31.54
2017-03-05T11:49:34.945Z,31.73
2017-03-05T11:50:34.959Z,31.54
2017-03-05T11:51:34.899Z,31.83
2017-03-05T11:52:34.959Z,31.73
2017-03-05T11:53:34.529Z,31.83
2017-03-05T11:54:34.969Z,31.54
2017-03-05T11:55:34.930Z,31.63
2017-03-05T11:56:34.983Z,31.83
2017-03-05T11:57:36.159Z,31.93
2017-03-05T11:58:34.945Z,31.93
2017-03-05T11:59:35.006Z,31.73
2017-03-05T12:00:35.026Z,31.45
2017-03-05T12:01:36.164Z,30.58
2017-03-05T12:02:34.588Z,30.19
2017-03-05T12:03:35.041Z,30
2017-03-05T12:04:34.984Z,30.1
2017-03-05T12:05:35.040Z,29.6
2017-03-05T12:06:35.045Z,29.98
2017-03-05T12:07:35.057Z,29.21
2017-03-05T12:08:35.363Z,28.53
2017-03-05T12:09:35.066Z,29.41
2017-03-05T12:10:35.121Z,30.37
2017-03-05T12:11:35.024Z,30.94
2017-03-05T12:12:35.999Z,28.92
2017-03-05T12:13:35.088Z,29.98
2017-03-05T12:14:35.095Z,28.63
2017-03-05T12:15:35.155Z,29.02
2017-03-05T12:16:35.158Z,28.92
2017-03-05T12:17:35.113Z,28.44
2017-03-05T12:18:35.070Z,28.63
2017-03-05T12:19:35.076Z,27.86
2017-03-05T12:20:35.147Z,28.62
2017-03-05T12:21:35.146Z,27.94
2017-03-05T12:22:35.144Z,28.42
2017-03-05T12:23:35.654Z,28.62
2017-03-05T12:24:35.155Z,28.44
2017-03-05T12:25:35.122Z,27.67
2017-03-05T12:26:34.720Z,27.56
2017-03-05T12:27:35.131Z,26.98
2017-03-05T12:28:35.232Z,27.75
2017-03-05T12:29:35.192Z,28.81
2017-03-05T12:30:34.795Z,28.23
2017-03-05T12:31:35.155Z,27.27
2017-03-05T12:32:35.213Z,28.04
2017-03-05T12:33:35.211Z,28.91
2017-03-05T12:34:35.564Z,28.14
2017-03-05T12:35:35.172Z,28.62
2017-03-05T12:36:35.194Z,28.33
2017-03-05T12:37:34.839Z,27.86
2017-03-05T12:38:35.238Z,28.04
2017-03-05T12:39:35.302Z,27.94
2017-03-05T12:40:35.205Z,28.14
2017-03-05T12:41:35.219Z,28.23
2017-03-05T12:42:35.231Z,28.23
2017-03-05T12:43:36.243Z,28.04
2017-03-05T12:44:35.278Z,28.14
2017-03-05T12:45:35.634Z,28.81
2017-03-05T12:46:35.242Z,27.66
2017-03-05T12:47:35.241Z,27.66
2017-03-05T12:48:35.250Z,27.75
2017-03-05T12:49:35.308Z,27.17
2017-03-05T12:50:35.361Z,27.85
2017-03-05T12:51:35.271Z,28.33
2017-03-05T12:52:35.276Z,27.85
2017-03-05T12:53:34.985Z,27.75
2017-03-05T12:54:35.334Z,27.46
2017-03-05T12:55:34.891Z,28.14
2017-03-05T12:56:35.848Z,28.33